createdAt,value
2018-08-13T00:00:31.783Z,999.69
2018-08-13T00:01:31.788Z,999.71
2018-08-13T00:02:31.784Z,999.66
2018-08-13T00:03:31.788Z,999.69
2018-08-13T00:04:31.790Z,999.69
2018-08-13T00:05:31.856Z,999.68
2018-08-13T00:06:31.858Z,999.61
2018-08-13T00:07:31.790Z,999.65
2018-08-13T00:08:31.822Z,999.62
2018-08-13T00:09:31.783Z,999.61
2018-08-13T00:10:31.790Z,999.60
2018-08-13T00:11:31.748Z,999.57
2018-08-13T00:12:31.822Z,999.57
2018-08-13T00:13:31.746Z,999.55
2018-08-13T00:14:31.750Z,999.50
2018-08-13T00:15:31.846Z,999.49
2018-08-13T00:16:31.809Z,999.46
2018-08-13T00:17:31.820Z,999.43
2018-08-13T00:18:31.762Z,999.43
2018-08-13T00:19:31.852Z,999.45
2018-08-13T00:20:31.835Z,999.42
2018-08-13T00:21:31.767Z,999.46
2018-08-13T00:22:31.752Z,999.41
2018-08-13T00:23:31.866Z,999.40
2018-08-13T00:24:31.835Z,999.40
2018-08-13T00:25:31.747Z,999.29
2018-08-13T00:26:31.774Z,999.30
2018-08-13T00:27:31.750Z,999.32
2018-08-13T00:28:31.831Z,999.29
2018-08-13T00:29:31.731Z,999.27
2018-08-13T00:30:31.827Z,999.23
2018-08-13T00:31:31.899Z,999.20
2018-08-13T00:32:31.766Z,999.22
2018-08-13T00:33:31.766Z,999.18
2018-08-13T00:34:31.780Z,999.20
2018-08-13T00:35:31.843Z,999.21
2018-08-13T00:36:31.764Z,999.23
2018-08-13T00:37:31.801Z,999.26
2018-08-13T00:38:31.779Z,999.25
2018-08-13T00:39:31.843Z,999.21
2018-08-13T00:40:31.850Z,999.28
2018-08-13T00:41:31.877Z,999.30
2018-08-13T00:42:31.827Z,999.27
2018-08-13T00:43:31.746Z,999.24
2018-08-13T00:44:31.783Z,999.25
2018-08-13T00:45:31.785Z,999.24
2018-08-13T00:46:31.789Z,999.27
2018-08-13T00:47:31.887Z,999.28
2018-08-13T00:48:31.885Z,999.30
2018-08-13T00:49:31.816Z,999.35
2018-08-13T00:50:31.889Z,999.30
2018-08-13T00:51:31.817Z,999.29
2018-08-13T00:52:31.816Z,999.26
2018-08-13T00:53:31.891Z,999.27
2018-08-13T00:54:31.815Z,999.29
2018-08-13T00:55:31.894Z,999.27
2018-08-13T00:56:31.819Z,999.25
2018-08-13T00:57:31.891Z,999.24
2018-08-13T00:58:31.822Z,999.23
2018-08-13T00:59:31.897Z,999.20
2018-08-13T01:00:31.909Z,999.20
2018-08-13T01:01:31.835Z,999.19
2018-08-13T01:02:31.826Z,999.15
2018-08-13T01:03:31.896Z,999.10
2018-08-13T01:04:31.896Z,999.12
2018-08-13T01:05:31.897Z,999.13
2018-08-13T01:06:31.899Z,999.10
2018-08-13T01:07:31.901Z,999.11
2018-08-13T01:08:31.826Z,999.09
2018-08-13T01:09:31.898Z,999.07
2018-08-13T01:10:31.898Z,999.09
2018-08-13T01:11:31.898Z,999.10
2018-08-13T01:12:31.828Z,999.06
2018-08-13T01:13:31.831Z,999.07
2018-08-13T01:14:31.839Z,999.05
2018-08-13T01:15:31.907Z,999.01
2018-08-13T01:16:31.906Z,998.95
2018-08-13T01:17:31.907Z,998.98
2018-08-13T01:18:31.905Z,998.94
2018-08-13T01:19:31.907Z,998.95
2018-08-13T01:20:31.840Z,998.92
2018-08-13T01:21:31.908Z,998.90
2018-08-13T01:22:31.839Z,998.87
2018-08-13T01:23:31.910Z,998.88
2018-08-13T01:24:31.911Z,998.82
2018-08-13T01:25:31.913Z,998.80
2018-08-13T01:26:31.911Z,998.78
2018-08-13T01:27:31.848Z,998.74
2018-08-13T01:28:31.815Z,998.67
2018-08-13T01:29:31.764Z,998.65
2018-08-13T01:30:31.856Z,998.65
2018-08-13T01:31:31.812Z,998.66
2018-08-13T01:32:31.770Z,998.62
2018-08-13T01:33:31.773Z,998.61
2018-08-13T01:34:31.797Z,998.64
2018-08-13T01:35:31.865Z,998.58
2018-08-13T01:36:31.815Z,998.58
2018-08-13T01:37:31.774Z,998.56
2018-08-13T01:38:31.819Z,998.60
2018-08-13T01:39:31.869Z,998.56
2018-08-13T01:40:31.821Z,998.55
2018-08-13T01:41:31.828Z,998.56
2018-08-13T01:42:31.870Z,998.53
2018-08-13T01:43:31.915Z,998.52
2018-08-13T01:44:31.873Z,998.53
2018-08-13T01:45:31.825Z,998.53
2018-08-13T01:46:31.830Z,998.48
2018-08-13T01:47:31.921Z,998.44
2018-08-13T01:48:31.807Z,998.44
2018-08-13T01:49:31.895Z,998.42
2018-08-13T01:50:31.831Z,998.45
2018-08-13T01:51:31.899Z,998.49
2018-08-13T01:52:31.896Z,998.54
2018-08-13T01:53:31.812Z,998.59
2018-08-13T01:54:31.831Z,998.58
2018-08-13T01:55:31.927Z,998.59
2018-08-13T01:56:31.924Z,998.62
2018-08-13T01:57:31.830Z,998.60
2018-08-13T01:58:31.893Z,998.54
2018-08-13T01:59:31.934Z,998.61
2018-08-13T02:00:31.868Z,998.60
2018-08-13T02:01:32.120Z,998.68
2018-08-13T02:02:31.937Z,998.61
2018-08-13T02:03:31.893Z,998.64
2018-08-13T02:04:31.939Z,998.69
2018-08-13T02:05:31.873Z,998.75
2018-08-13T02:06:31.870Z,998.74
2018-08-13T02:07:31.942Z,998.74
2018-08-13T02:08:31.943Z,998.71
2018-08-13T02:09:31.868Z,998.74
2018-08-13T02:10:31.943Z,998.70
2018-08-13T02:11:31.942Z,998.68
2018-08-13T02:12:31.872Z,998.68
2018-08-13T02:13:31.944Z,998.64
2018-08-13T02:14:31.945Z,998.65
2018-08-13T02:15:31.946Z,998.60
2018-08-13T02:16:31.972Z,998.66
2018-08-13T02:17:31.908Z,998.65
2018-08-13T02:18:31.912Z,998.62
2018-08-13T02:19:31.882Z,998.58
2018-08-13T02:20:31.851Z,998.58
2018-08-13T02:21:31.846Z,998.54
2018-08-13T02:22:31.922Z,998.53
2018-08-13T02:23:31.857Z,998.54
2018-08-13T02:24:31.814Z,998.48
2018-08-13T02:25:31.940Z,998.50
2018-08-13T02:26:31.858Z,998.47
2018-08-13T02:27:31.815Z,998.47
2018-08-13T02:28:31.958Z,998.45
2018-08-13T02:29:31.955Z,998.45
2018-08-13T02:30:31.888Z,998.43
2018-08-13T02:31:31.967Z,998.39
2018-08-13T02:32:32.021Z,998.41
2018-08-13T02:33:31.958Z,998.36
2018-08-13T02:34:31.959Z,998.39
2018-08-13T02:35:31.961Z,998.39
2018-08-13T02:36:31.961Z,998.36
2018-08-13T02:37:31.896Z,998.35
2018-08-13T02:38:31.961Z,998.31
2018-08-13T02:39:32.000Z,998.32
2018-08-13T02:40:31.964Z,998.32
2018-08-13T02:41:31.967Z,998.36
2018-08-13T02:42:31.897Z,998.36
2018-08-13T02:43:31.965Z,998.37
2018-08-13T02:44:31.965Z,998.35
2018-08-13T02:45:31.968Z,998.34
2018-08-13T02:46:31.905Z,998.33
2018-08-13T02:47:31.969Z,998.34
2018-08-13T02:48:31.895Z,998.35
2018-08-13T02:49:31.970Z,998.35
2018-08-13T02:50:31.971Z,998.38
2018-08-13T02:51:31.971Z,998.36
2018-08-13T02:52:31.904Z,998.44
2018-08-13T02:53:31.973Z,998.39
2018-08-13T02:54:31.902Z,998.36
2018-08-13T02:55:31.904Z,998.39
2018-08-13T02:56:31.975Z,998.34
2018-08-13T02:57:31.901Z,998.36
2018-08-13T02:58:31.993Z,998.32
2018-08-13T02:59:31.965Z,998.32
2018-08-13T03:00:31.948Z,998.34
2018-08-13T03:01:31.863Z,998.32
2018-08-13T03:02:31.890Z,998.33
2018-08-13T03:03:32.178Z,998.34
2018-08-13T03:04:31.932Z,998.34
2018-08-13T03:05:31.972Z,998.34
2018-08-13T03:06:31.903Z,998.35
2018-08-13T03:07:31.867Z,998.37
2018-08-13T03:08:31.891Z,998.36
2018-08-13T03:09:31.913Z,998.34
2018-08-13T03:10:31.988Z,998.28
2018-08-13T03:11:31.916Z,998.25
2018-08-13T03:12:31.994Z,998.22
2018-08-13T03:13:31.916Z,998.27
2018-08-13T03:14:31.986Z,998.21
2018-08-13T03:15:31.987Z,998.25
2018-08-13T03:16:31.936Z,998.26
2018-08-13T03:17:31.990Z,998.26
2018-08-13T03:18:31.934Z,998.24
2018-08-13T03:19:31.895Z,998.23
2018-08-13T03:20:31.966Z,998.17
2018-08-13T03:21:31.850Z,998.19
2018-08-13T03:22:31.939Z,998.21
2018-08-13T03:23:31.992Z,998.22
2018-08-13T03:24:31.858Z,998.21
2018-08-13T03:25:31.861Z,998.22
2018-08-13T03:26:31.880Z,998.23
2018-08-13T03:27:31.900Z,998.24
2018-08-13T03:28:31.961Z,998.24
2018-08-13T03:29:31.963Z,998.23
2018-08-13T03:30:31.937Z,998.21
2018-08-13T03:31:31.928Z,998.26
2018-08-13T03:32:31.967Z,998.31
2018-08-13T03:33:32.037Z,998.24
2018-08-13T03:34:31.908Z,998.26
2018-08-13T03:35:31.969Z,998.24
2018-08-13T03:36:31.994Z,998.22
2018-08-13T03:37:31.946Z,998.25
2018-08-13T03:38:31.970Z,998.29
2018-08-13T03:39:31.998Z,998.28
2018-08-13T03:40:31.891Z,998.31
2018-08-13T03:41:31.909Z,998.30
2018-08-13T03:42:31.974Z,998.28
2018-08-13T03:43:31.937Z,998.29
2018-08-13T03:44:31.970Z,998.23
2018-08-13T03:45:31.912Z,998.22
2018-08-13T03:46:31.999Z,998.21
2018-08-13T03:47:31.885Z,998.22
2018-08-13T03:48:31.887Z,998.19
2018-08-13T03:49:31.873Z,998.18
2018-08-13T03:50:31.891Z,998.17
2018-08-13T03:51:32.003Z,998.17
2018-08-13T03:52:31.878Z,998.19
2018-08-13T03:53:31.983Z,998.20
2018-08-13T03:54:31.899Z,998.21
2018-08-13T03:55:31.966Z,998.15
2018-08-13T03:56:31.889Z,998.15
2018-08-13T03:57:31.968Z,998.15
2018-08-13T03:58:32.009Z,998.13
2018-08-13T03:59:31.922Z,998.13
2018-08-13T04:00:31.898Z,998.12
2018-08-13T04:01:32.009Z,998.11
2018-08-13T04:02:31.966Z,998.07
2018-08-13T04:03:31.997Z,998.08
2018-08-13T04:04:32.013Z,998.05
2018-08-13T04:05:31.904Z,998.07
2018-08-13T04:06:32.015Z,998.06
2018-08-13T04:07:31.929Z,998.08
2018-08-13T04:08:31.949Z,998.07
2018-08-13T04:09:32.024Z,998.09
2018-08-13T04:10:31.957Z,998.05
2018-08-13T04:11:32.027Z,998.01
2018-08-13T04:12:31.964Z,997.97
2018-08-13T04:13:32.027Z,997.99
2018-08-13T04:14:31.958Z,998.00
2018-08-13T04:15:31.981Z,998.00
2018-08-13T04:16:32.029Z,998.02
2018-08-13T04:17:32.032Z,998.03
2018-08-13T04:18:31.961Z,997.95
2018-08-13T04:19:32.019Z,997.96
2018-08-13T04:20:31.930Z,997.94
2018-08-13T04:21:31.933Z,997.94
2018-08-13T04:22:32.045Z,997.94
2018-08-13T04:23:31.978Z,997.89
2018-08-13T04:24:31.996Z,997.93
2018-08-13T04:25:31.919Z,997.94
2018-08-13T04:26:31.981Z,997.97
2018-08-13T04:27:31.915Z,997.92
2018-08-13T04:28:31.974Z,997.91
2018-08-13T04:29:31.963Z,997.89
2018-08-13T04:30:32.040Z,997.83
2018-08-13T04:31:31.970Z,997.82
2018-08-13T04:32:32.073Z,997.84
2018-08-13T04:33:31.964Z,997.81
2018-08-13T04:34:32.041Z,997.86
2018-08-13T04:35:31.968Z,997.84
2018-08-13T04:36:32.047Z,997.76
2018-08-13T04:37:31.975Z,997.76
2018-08-13T04:38:32.056Z,997.77
2018-08-13T04:39:31.987Z,997.74
2018-08-13T04:40:32.008Z,997.74
2018-08-13T04:41:32.054Z,997.70
2018-08-13T04:42:31.985Z,997.71
2018-08-13T04:43:31.918Z,997.66
2018-08-13T04:44:31.917Z,997.67
2018-08-13T04:45:31.936Z,997.61
2018-08-13T04:46:32.027Z,997.61
2018-08-13T04:47:31.937Z,997.61
2018-08-13T04:48:31.930Z,997.61
2018-08-13T04:49:32.051Z,997.59
2018-08-13T04:50:32.053Z,997.57
2018-08-13T04:51:31.977Z,997.55
2018-08-13T04:52:32.054Z,997.64
2018-08-13T04:53:31.987Z,997.63
2018-08-13T04:54:32.055Z,997.61
2018-08-13T04:55:32.029Z,997.62
2018-08-13T04:56:32.055Z,997.55
2018-08-13T04:57:32.058Z,997.53
2018-08-13T04:58:32.060Z,997.54
2018-08-13T04:59:32.027Z,997.53
2018-08-13T05:00:31.962Z,997.57
2018-08-13T05:01:32.060Z,997.52
2018-08-13T05:02:32.001Z,997.52
2018-08-13T05:03:32.045Z,997.51
2018-08-13T05:04:31.989Z,997.51
2018-08-13T05:05:31.941Z,997.60
2018-08-13T05:06:32.012Z,997.56
2018-08-13T05:07:32.027Z,997.53
2018-08-13T05:08:31.926Z,997.57
2018-08-13T05:09:32.000Z,997.53
2018-08-13T05:10:31.947Z,997.53
2018-08-13T05:11:32.017Z,997.54
2018-08-13T05:12:32.016Z,997.53
2018-08-13T05:13:31.937Z,997.51
2018-08-13T05:14:31.975Z,997.51
2018-08-13T05:15:31.921Z,997.51
2018-08-13T05:16:32.097Z,997.56
2018-08-13T05:17:32.026Z,997.51
2018-08-13T05:18:32.022Z,997.50
2018-08-13T05:19:32.071Z,997.51
2018-08-13T05:20:31.999Z,997.51
2018-08-13T05:21:32.078Z,997.48
2018-08-13T05:22:32.005Z,997.48
2018-08-13T05:23:32.072Z,997.48
2018-08-13T05:24:32.009Z,997.49
2018-08-13T05:25:32.007Z,997.44
2018-08-13T05:26:32.080Z,997.39
2018-08-13T05:27:32.033Z,997.39
2018-08-13T05:28:32.079Z,997.31
2018-08-13T05:29:31.971Z,997.25
2018-08-13T05:30:31.975Z,997.18
2018-08-13T05:31:31.972Z,997.17
2018-08-13T05:32:31.931Z,997.16
2018-08-13T05:33:31.917Z,997.15
2018-08-13T05:34:31.980Z,997.15
2018-08-13T05:35:31.973Z,997.18
2018-08-13T05:36:31.973Z,997.17
2018-08-13T05:37:32.021Z,997.18
2018-08-13T05:38:32.023Z,997.17
2018-08-13T05:39:31.969Z,997.17
2018-08-13T05:40:31.980Z,997.16
2018-08-13T05:41:31.993Z,997.16
2018-08-13T05:42:32.016Z,997.18
2018-08-13T05:43:31.956Z,997.16
2018-08-13T05:44:32.016Z,997.16
2018-08-13T05:45:32.047Z,997.14
2018-08-13T05:46:32.017Z,997.17
2018-08-13T05:47:32.003Z,997.19
2018-08-13T05:48:32.054Z,997.22
2018-08-13T05:49:31.923Z,997.25
2018-08-13T05:50:32.032Z,997.30
2018-08-13T05:51:32.034Z,997.25
2018-08-13T05:52:32.033Z,997.21
2018-08-13T05:53:31.987Z,997.21
2018-08-13T05:54:32.036Z,997.20
2018-08-13T05:55:32.041Z,997.15
2018-08-13T05:56:32.038Z,997.15
2018-08-13T05:57:32.024Z,997.13
2018-08-13T05:58:32.041Z,997.17
2018-08-13T05:59:31.986Z,997.18
2018-08-13T06:00:32.125Z,997.17
2018-08-13T06:01:32.130Z,997.21
2018-08-13T06:02:32.010Z,997.18
2018-08-13T06:03:32.007Z,997.16
2018-08-13T06:04:32.049Z,997.14
2018-08-13T06:05:31.962Z,997.15
2018-08-13T06:06:32.059Z,997.12
2018-08-13T06:07:32.060Z,997.18
2018-08-13T06:08:32.068Z,997.18
2018-08-13T06:09:32.076Z,997.16
2018-08-13T06:10:32.016Z,997.17
2018-08-13T06:11:32.093Z,997.15
2018-08-13T06:12:32.016Z,997.13
2018-08-13T06:13:32.011Z,997.11
2018-08-13T06:14:31.989Z,997.10
2018-08-13T06:15:32.094Z,997.08
2018-08-13T06:16:32.008Z,997.04
2018-08-13T06:17:32.040Z,997.05
2018-08-13T06:18:32.107Z,997.09
2018-08-13T06:19:32.068Z,997.06
2018-08-13T06:20:32.028Z,997.03
2018-08-13T06:21:32.055Z,997.05
2018-08-13T06:22:32.000Z,997.07
2018-08-13T06:23:31.985Z,997.07
2018-08-13T06:24:32.014Z,997.08
2018-08-13T06:25:32.075Z,997.08
2018-08-13T06:26:32.045Z,997.07
2018-08-13T06:27:32.060Z,997.05
2018-08-13T06:28:32.006Z,997.02
2018-08-13T06:29:32.120Z,997.05
2018-08-13T06:30:32.051Z,996.99
2018-08-13T06:31:32.124Z,996.98
2018-08-13T06:32:32.123Z,996.98
2018-08-13T06:33:32.049Z,996.96
2018-08-13T06:34:32.124Z,996.97
2018-08-13T06:35:32.053Z,996.96
2018-08-13T06:36:32.049Z,996.95
2018-08-13T06:37:32.051Z,996.94
2018-08-13T06:38:32.128Z,997.00
2018-08-13T06:39:32.057Z,997.01
2018-08-13T06:40:32.130Z,997.00
2018-08-13T06:41:32.056Z,997.04
2018-08-13T06:42:32.134Z,997.07
2018-08-13T06:43:32.057Z,997.04
2018-08-13T06:44:32.133Z,997.06
2018-08-13T06:45:32.056Z,997.05
2018-08-13T06:46:32.135Z,997.05
2018-08-13T06:47:32.131Z,997.02
2018-08-13T06:48:32.055Z,997.01
2018-08-13T06:49:32.059Z,997.03
2018-08-13T06:50:32.138Z,997.00
2018-08-13T06:51:32.061Z,996.99
2018-08-13T06:52:32.069Z,996.97
2018-08-13T06:53:32.142Z,996.99
2018-08-13T06:54:32.064Z,996.97
2018-08-13T06:55:32.136Z,996.95
2018-08-13T06:56:32.067Z,996.95
2018-08-13T06:57:32.143Z,996.93
2018-08-13T06:58:32.066Z,996.93
2018-08-13T06:59:32.142Z,996.94
2018-08-13T07:00:32.072Z,996.94
2018-08-13T07:01:32.072Z,996.99
2018-08-13T07:02:32.143Z,996.97
2018-08-13T07:03:32.069Z,996.91
2018-08-13T07:04:32.145Z,996.92
2018-08-13T07:05:32.147Z,996.95
2018-08-13T07:06:32.072Z,996.97
2018-08-13T07:07:32.079Z,996.96
2018-08-13T07:08:32.149Z,997.00
2018-08-13T07:09:32.173Z,997.06
2018-08-13T07:10:32.074Z,997.06
2018-08-13T07:11:32.077Z,997.10
2018-08-13T07:12:32.030Z,997.11
2018-08-13T07:13:32.079Z,997.17
2018-08-13T07:14:32.173Z,997.18
2018-08-13T07:15:32.076Z,997.19
2018-08-13T07:16:32.153Z,997.17
2018-08-13T07:17:32.102Z,997.19
2018-08-13T07:18:32.153Z,997.21
2018-08-13T07:19:32.122Z,997.17
2018-08-13T07:20:32.156Z,997.14
2018-08-13T07:21:32.084Z,997.14
2018-08-13T07:22:32.174Z,997.19
2018-08-13T07:23:32.156Z,997.19
2018-08-13T07:24:32.083Z,997.24
2018-08-13T07:25:32.084Z,997.26
2018-08-13T07:26:32.161Z,997.31
2018-08-13T07:27:32.083Z,997.35
2018-08-13T07:28:32.091Z,997.41
2018-08-13T07:29:32.164Z,997.46
2018-08-13T07:30:32.184Z,997.50
2018-08-13T07:31:32.103Z,997.58
2018-08-13T07:32:32.164Z,997.66
2018-08-13T07:33:32.127Z,997.69
2018-08-13T07:34:32.173Z,997.70
2018-08-13T07:35:32.095Z,997.67
2018-08-13T07:36:32.146Z,997.65
2018-08-13T07:37:32.093Z,997.64
2018-08-13T07:38:32.172Z,997.67
2018-08-13T07:39:32.194Z,997.67
2018-08-13T07:40:32.170Z,997.65
2018-08-13T07:41:32.114Z,997.70
2018-08-13T07:42:32.182Z,997.69
2018-08-13T07:43:32.196Z,997.72
2018-08-13T07:44:32.174Z,997.72
2018-08-13T07:45:32.116Z,997.77
2018-08-13T07:46:32.172Z,997.77
2018-08-13T07:47:32.148Z,997.76
2018-08-13T07:48:32.108Z,997.89
2018-08-13T07:49:32.202Z,997.92
2018-08-13T07:50:32.110Z,997.97
2018-08-13T07:51:32.184Z,997.99
2018-08-13T07:52:32.106Z,998.09
2018-08-13T07:53:32.178Z,998.08
2018-08-13T07:54:32.133Z,998.14
2018-08-13T07:55:32.109Z,998.18
2018-08-13T07:56:32.183Z,998.19
2018-08-13T07:57:32.114Z,998.25
2018-08-13T07:58:32.185Z,998.31
2018-08-13T07:59:32.121Z,998.30
2018-08-13T08:00:32.184Z,998.35
2018-08-13T08:01:32.116Z,998.43
2018-08-13T08:02:32.187Z,998.46
2018-08-13T08:03:32.151Z,998.54
2018-08-13T08:04:32.187Z,998.54
2018-08-13T08:05:32.113Z,998.57
2018-08-13T08:06:32.189Z,998.56
2018-08-13T08:07:32.113Z,998.64
2018-08-13T08:08:32.188Z,998.65
2018-08-13T08:09:32.120Z,998.69
2018-08-13T08:10:32.116Z,998.71
2018-08-13T08:11:32.192Z,998.69
2018-08-13T08:12:32.192Z,998.71
2018-08-13T08:13:32.119Z,998.67
2018-08-13T08:14:32.247Z,998.65
2018-08-13T08:15:32.121Z,998.64
2018-08-13T08:16:32.196Z,998.70
2018-08-13T08:17:32.195Z,998.72
2018-08-13T08:18:32.127Z,998.69
2018-08-13T08:19:32.197Z,998.72
2018-08-13T08:20:32.123Z,998.71
2018-08-13T08:21:32.197Z,998.75
2018-08-13T08:22:32.128Z,998.77
2018-08-13T08:23:32.199Z,998.73
2018-08-13T08:24:32.127Z,998.78
2018-08-13T08:25:32.133Z,998.80
2018-08-13T08:26:32.208Z,998.80
2018-08-13T08:27:32.199Z,998.85
2018-08-13T08:28:32.202Z,998.85
2018-08-13T08:29:32.193Z,998.87
2018-08-13T08:30:32.144Z,998.89
2018-08-13T08:31:32.127Z,998.97
2018-08-13T08:32:32.082Z,999.00
2018-08-13T08:33:32.151Z,999.04
2018-08-13T08:34:32.108Z,999.02
2018-08-13T08:35:32.208Z,999.06
2018-08-13T08:36:32.104Z,999.08
2018-08-13T08:37:32.198Z,999.04
2018-08-13T08:38:32.104Z,999.00
2018-08-13T08:39:32.044Z,998.97
2018-08-13T08:40:32.173Z,998.97
2018-08-13T08:41:32.164Z,998.98
2018-08-13T08:42:32.061Z,998.93
2018-08-13T08:43:32.154Z,998.96
2018-08-13T08:44:32.098Z,998.94
2018-08-13T08:45:32.106Z,999.01
2018-08-13T08:46:32.160Z,999.03
2018-08-13T08:47:32.067Z,999.04
2018-08-13T08:48:32.152Z,999.06
2018-08-13T08:49:32.147Z,999.02
2018-08-13T08:50:32.220Z,998.96
2018-08-13T08:51:32.218Z,998.95
2018-08-13T08:52:32.155Z,998.95
2018-08-13T08:53:32.453Z,999.01
2018-08-13T08:54:32.147Z,999.01
2018-08-13T08:55:32.223Z,999.03
2018-08-13T08:56:32.143Z,998.95
2018-08-13T08:57:32.151Z,998.95
2018-08-13T08:58:32.224Z,998.91
2018-08-13T08:59:32.150Z,998.85
2018-08-13T09:00:32.279Z,998.82
2018-08-13T09:01:32.228Z,998.85
2018-08-13T09:02:32.153Z,998.80
2018-08-13T09:03:32.156Z,998.78
2018-08-13T09:04:32.232Z,998.83
2018-08-13T09:05:32.162Z,998.77
2018-08-13T09:06:32.263Z,998.75
2018-08-13T09:07:32.231Z,998.71
2018-08-13T09:08:32.161Z,998.66
2018-08-13T09:09:32.100Z,998.66
2018-08-13T09:10:32.122Z,998.59
2018-08-13T09:11:32.193Z,998.57
2018-08-13T09:12:32.170Z,998.53
2018-08-13T09:13:32.104Z,998.51
2018-08-13T09:14:32.195Z,998.54
2018-08-13T09:15:32.128Z,998.52
2018-08-13T09:16:32.143Z,998.60
2018-08-13T09:17:32.188Z,998.54
2018-08-13T09:18:32.105Z,998.54
2018-08-13T09:19:32.243Z,998.55
2018-08-13T09:20:32.102Z,998.48
2018-08-13T09:21:32.210Z,998.47
2018-08-13T09:22:32.225Z,998.41
2018-08-13T09:23:32.187Z,998.38
2018-08-13T09:24:32.393Z,998.38
2018-08-13T09:25:32.246Z,998.32
2018-08-13T09:26:32.190Z,998.28
2018-08-13T09:27:32.192Z,998.25
2018-08-13T09:28:32.174Z,998.22
2018-08-13T09:29:32.245Z,998.22
2018-08-13T09:30:32.173Z,998.16
2018-08-13T09:31:32.329Z,998.15
2018-08-13T09:32:32.250Z,998.13
2018-08-13T09:33:32.176Z,998.21
2018-08-13T09:34:32.248Z,998.13
2018-08-13T09:35:32.202Z,998.16
2018-08-13T09:36:32.288Z,998.12
2018-08-13T09:37:32.177Z,998.09
2018-08-13T09:38:32.253Z,998.05
2018-08-13T09:39:32.182Z,998.07
2018-08-13T09:40:32.112Z,998.10
2018-08-13T09:41:32.194Z,998.15
2018-08-13T09:42:32.228Z,998.13
2018-08-13T09:43:32.143Z,998.16
2018-08-13T09:44:32.123Z,998.21
2018-08-13T09:45:32.158Z,998.27
2018-08-13T09:46:32.157Z,998.32
2018-08-13T09:47:32.202Z,998.34
2018-08-13T09:48:32.216Z,998.35
2018-08-13T09:49:32.244Z,998.34
2018-08-13T09:50:32.186Z,998.32
2018-08-13T09:51:32.191Z,998.25
2018-08-13T09:52:32.261Z,998.22
2018-08-13T09:53:32.195Z,998.13
2018-08-13T09:54:32.272Z,998.15
2018-08-13T09:55:32.189Z,998.08
2018-08-13T09:56:32.262Z,998.08
2018-08-13T09:57:32.192Z,998.03
2018-08-13T09:58:32.263Z,998.05
2018-08-13T09:59:32.202Z,998.00
2018-08-13T10:00:32.195Z,998.08
2018-08-13T10:01:32.271Z,998.09
2018-08-13T10:02:32.245Z,998.08
2018-08-13T10:03:32.270Z,998.08
2018-08-13T10:04:32.277Z,998.06
2018-08-13T10:05:32.196Z,998.04
2018-08-13T10:06:32.271Z,998.04
2018-08-13T10:07:32.202Z,998.05
2018-08-13T10:08:32.273Z,998.04
2018-08-13T10:09:32.197Z,998.05
2018-08-13T10:10:32.298Z,998.07
2018-08-13T10:11:32.233Z,998.09
2018-08-13T10:12:32.130Z,998.06
2018-08-13T10:13:32.234Z,998.09
2018-08-13T10:14:32.142Z,998.06
2018-08-13T10:15:32.164Z,998.11
2018-08-13T10:16:32.235Z,998.11
2018-08-13T10:17:32.229Z,998.12
2018-08-13T10:18:32.134Z,998.08
2018-08-13T10:19:32.217Z,998.02
2018-08-13T10:20:32.282Z,998.05
2018-08-13T10:21:32.279Z,998.04
2018-08-13T10:22:32.196Z,998.10
2018-08-13T10:23:32.212Z,998.09
2018-08-13T10:24:32.285Z,998.11
2018-08-13T10:25:32.209Z,998.11
2018-08-13T10:26:32.281Z,998.07
2018-08-13T10:27:32.208Z,998.05
2018-08-13T10:28:32.212Z,998.04
2018-08-13T10:29:32.289Z,998.06
2018-08-13T10:30:32.175Z,998.07
2018-08-13T10:31:32.262Z,998.09
2018-08-13T10:32:32.190Z,998.17
2018-08-13T10:33:32.155Z,998.16
2018-08-13T10:34:32.147Z,998.18
2018-08-13T10:35:32.177Z,998.19
2018-08-13T10:36:32.134Z,998.15
2018-08-13T10:37:32.320Z,998.11
2018-08-13T10:38:32.198Z,998.08
2018-08-13T10:39:32.234Z,998.03
2018-08-13T10:40:32.258Z,998.02
2018-08-13T10:41:32.231Z,997.99
2018-08-13T10:42:32.290Z,998.04
2018-08-13T10:43:32.313Z,998.05
2018-08-13T10:44:32.256Z,998.03
2018-08-13T10:45:32.211Z,998.04
2018-08-13T10:46:32.212Z,998.02
2018-08-13T10:47:32.282Z,998.04
2018-08-13T10:48:32.237Z,998.02
2018-08-13T10:49:32.260Z,997.98
2018-08-13T10:50:32.302Z,998.00
2018-08-13T10:51:32.234Z,997.97
2018-08-13T10:52:32.306Z,997.95
2018-08-13T10:53:32.231Z,997.95
2018-08-13T10:54:32.313Z,997.97
2018-08-13T10:55:32.301Z,997.94
2018-08-13T10:56:32.234Z,997.94
2018-08-13T10:57:32.309Z,997.96
2018-08-13T10:58:32.232Z,997.92
2018-08-13T10:59:32.312Z,997.91
2018-08-13T11:00:32.234Z,997.88
2018-08-13T11:01:32.309Z,997.84
2018-08-13T11:02:32.234Z,997.84
2018-08-13T11:03:32.312Z,997.77
2018-08-13T11:04:32.236Z,997.79
2018-08-13T11:05:32.227Z,997.81
2018-08-13T11:06:32.240Z,997.83
2018-08-13T11:07:32.332Z,997.77
2018-08-13T11:08:32.317Z,997.82
2018-08-13T11:09:32.316Z,997.79
2018-08-13T11:10:32.245Z,997.75
2018-08-13T11:11:32.295Z,997.76
2018-08-13T11:12:32.248Z,997.74
2018-08-13T11:13:32.303Z,997.72
2018-08-13T11:14:32.277Z,997.69
2018-08-13T11:15:32.262Z,997.61
2018-08-13T11:16:32.306Z,997.56
2018-08-13T11:17:32.266Z,997.51
2018-08-13T11:18:32.276Z,997.51
2018-08-13T11:19:32.279Z,997.55
2018-08-13T11:20:32.320Z,997.61
2018-08-13T11:21:32.265Z,997.64
2018-08-13T11:22:32.325Z,997.59
2018-08-13T11:23:32.329Z,997.58
2018-08-13T11:24:32.250Z,997.56
2018-08-13T11:25:32.254Z,997.51
2018-08-13T11:26:32.327Z,997.52
2018-08-13T11:27:32.259Z,997.52
2018-08-13T11:28:32.351Z,997.50
2018-08-13T11:29:32.255Z,997.54
2018-08-13T11:30:32.329Z,997.59
2018-08-13T11:31:32.259Z,997.61
2018-08-13T11:32:32.347Z,997.67
2018-08-13T11:33:32.262Z,997.62
2018-08-13T11:34:32.302Z,997.66
2018-08-13T11:35:32.332Z,997.66
2018-08-13T11:36:32.262Z,997.64
2018-08-13T11:37:32.333Z,997.63
2018-08-13T11:38:32.264Z,997.60
2018-08-13T11:39:32.340Z,997.62
2018-08-13T11:40:32.348Z,997.62
2018-08-13T11:41:32.280Z,997.60
2018-08-13T11:42:32.367Z,997.57
2018-08-13T11:43:32.227Z,997.55
2018-08-13T11:44:32.176Z,997.58
2018-08-13T11:45:32.268Z,997.60
2018-08-13T11:46:32.238Z,997.61
2018-08-13T11:47:32.300Z,997.65
2018-08-13T11:48:32.245Z,997.67
2018-08-13T11:49:32.214Z,997.66
2018-08-13T11:50:32.236Z,997.69
2018-08-13T11:51:32.289Z,997.66
2018-08-13T11:52:32.248Z,997.67
2018-08-13T11:53:32.290Z,997.59
2018-08-13T11:54:32.238Z,997.64
2018-08-13T11:55:32.235Z,997.55
2018-08-13T11:56:32.391Z,997.54
2018-08-13T11:57:32.182Z,997.53
2018-08-13T11:58:32.197Z,997.51
2018-08-13T11:59:32.233Z,997.49
2018-08-13T12:00:32.278Z,997.50
2018-08-13T12:01:32.275Z,997.49
2018-08-13T12:02:32.353Z,997.48
2018-08-13T12:03:32.277Z,997.47
2018-08-13T12:04:32.282Z,997.53
2018-08-13T12:05:32.350Z,997.54
2018-08-13T12:06:32.286Z,997.58
2018-08-13T12:07:32.360Z,997.52
2018-08-13T12:08:32.333Z,997.44
2018-08-13T12:09:32.361Z,997.44
2018-08-13T12:10:32.287Z,997.42
2018-08-13T12:11:32.364Z,997.44
2018-08-13T12:12:32.364Z,997.50
2018-08-13T12:13:32.287Z,997.52
2018-08-13T12:14:32.362Z,997.52
2018-08-13T12:15:32.517Z,997.53
2018-08-13T12:16:32.364Z,997.53
2018-08-13T12:17:32.288Z,997.50
2018-08-13T12:18:32.290Z,997.45
2018-08-13T12:19:32.338Z,997.45
2018-08-13T12:20:32.306Z,997.42
2018-08-13T12:21:32.334Z,997.39
2018-08-13T12:22:32.317Z,997.44
2018-08-13T12:23:32.309Z,997.48
2018-08-13T12:24:32.356Z,997.51
2018-08-13T12:25:32.367Z,997.50
2018-08-13T12:26:32.473Z,997.44
2018-08-13T12:27:32.299Z,997.51
2018-08-13T12:28:32.360Z,997.51